sensor_id;sensor_type;location;lat;lon;timestamp;pressure;altitude;pressure_sealevel;temperature;humidity
73864;BME280;62200;52.062;5.292;2022-07-10T14:50:28;102522.22;;;25.65;44.54
73864;BME280;62200;52.062;5.292;2022-07-10T14:52:53;102527.75;;;25.38;45.75
73864;BME280;62200;52.062;5.292;2022-07-10T14:55:19;102534.84;;;25.48;45.56
73864;BME280;62200;52.062;5.292;2022-07-10T14:57:44;102523.59;;;26.04;51.70
73864;BME280;62200;52.062;5.292;2022-07-10T15:00:10;102521.78;;;26.72;43.31
73864;BME280;62200;52.062;5.292;2022-07-10T15:02:35;102522.56;;;26.30;43.68
73864;BME280;62200;52.062;5.292;2022-07-10T15:05:01;102531.88;;;25.42;45.13
73864;BME280;62200;52.062;5.292;2022-07-10T15:07:27;102521.00;;;25.59;46.35
73864;BME280;62200;52.062;5.292;2022-07-10T15:11:55;102516.25;;;25.44;45.85
73864;BME280;62200;52.062;5.292;2022-07-10T15:14:21;102521.81;;;25.24;45.63
73864;BME280;62200;52.062;5.292;2022-07-10T15:16:47;102516.66;;;25.04;45.99
73864;BME280;62200;52.062;5.292;2022-07-10T15:19:12;102512.63;;;24.81;46.95
73864;BME280;62200;52.062;5.292;2022-07-10T15:21:38;102518.69;;;24.65;47.48
73864;BME280;62200;52.062;5.292;2022-07-10T15:24:04;102513.59;;;24.53;47.24
73864;BME280;62200;52.062;5.292;2022-07-10T15:26:29;102511.94;;;24.42;47.88
73864;BME280;62200;52.062;5.292;2022-07-10T15:28:54;102518.28;;;24.33;47.79
73864;BME280;62200;52.062;5.292;2022-07-10T15:31:23;102517.31;;;24.25;48.39
73864;BME280;62200;52.062;5.292;2022-07-10T15:33:49;102520.03;;;24.15;48.60
73864;BME280;62200;52.062;5.292;2022-07-10T15:36:14;102516.06;;;24.09;48.85
73864;BME280;62200;52.062;5.292;2022-07-10T15:38:40;102505.63;;;24.05;49.01
73864;BME280;62200;52.062;5.292;2022-07-10T15:41:05;102509.78;;;23.99;48.90
73864;BME280;62200;52.062;5.292;2022-07-10T15:43:30;102508.59;;;23.92;49.28
73864;BME280;62200;52.062;5.292;2022-07-10T15:45:56;102501.78;;;23.88;49.44
73864;BME280;62200;52.062;5.292;2022-07-10T15:48:21;102513.06;;;23.84;49.11
73864;BME280;62200;52.062;5.292;2022-07-10T15:50:47;102511.50;;;23.81;49.12
73864;BME280;62200;52.062;5.292;2022-07-10T15:53:12;102505.50;;;23.78;49.65
73864;BME280;62200;52.062;5.292;2022-07-10T15:55:37;102502.06;;;23.76;49.66
73864;BME280;62200;52.062;5.292;2022-07-10T15:58:03;102506.78;;;23.74;49.43
73864;BME280;62200;52.062;5.292;2022-07-10T16:00:28;102502.66;;;23.70;49.56
73864;BME280;62200;52.062;5.292;2022-07-10T16:02:53;102497.81;;;23.64;49.90
73864;BME280;62200;52.062;5.292;2022-07-10T16:05:19;102496.94;;;23.63;50.12
73864;BME280;62200;52.062;5.292;2022-07-10T16:07:44;102506.25;;;23.61;49.74
73864;BME280;62200;52.062;5.292;2022-07-10T16:10:10;102509.25;;;23.58;50.46
73864;BME280;62200;52.062;5.292;2022-07-10T16:12:35;102492.25;;;23.56;50.06
73864;BME280;62200;52.062;5.292;2022-07-10T16:15:01;102492.66;;;23.51;50.37
73864;BME280;62200;52.062;5.292;2022-07-10T16:17:26;102490.94;;;23.50;50.16
73864;BME280;62200;52.062;5.292;2022-07-10T16:19:52;102483.25;;;23.46;50.53
73864;BME280;62200;52.062;5.292;2022-07-10T16:22:17;102491.41;;;23.46;50.15
73864;BME280;62200;52.062;5.292;2022-07-10T16:24:43;102479.81;;;23.44;50.50
73864;BME280;62200;52.062;5.292;2022-07-10T16:27:26;102481.53;;;23.45;50.39
73864;BME280;62200;52.062;5.292;2022-07-10T16:29:52;102481.81;;;23.42;50.51
73864;BME280;62200;52.062;5.292;2022-07-10T16:32:18;102479.25;;;23.40;50.84
73864;BME280;62200;52.062;5.292;2022-07-10T16:34:45;102479.41;;;23.39;50.73
73864;BME280;62200;52.062;5.292;2022-07-10T16:37:10;102481.53;;;23.35;50.75
73864;BME280;62200;52.062;5.292;2022-07-10T16:39:35;102475.53;;;23.32;50.87
73864;BME280;62200;52.062;5.292;2022-07-10T16:42:01;102480.09;;;23.31;51.11
73864;BME280;62200;52.062;5.292;2022-07-10T16:44:26;102465.81;;;23.29;50.99
73864;BME280;62200;52.062;5.292;2022-07-10T16:46:51;102470.41;;;23.29;51.04
73864;BME280;62200;52.062;5.292;2022-07-10T16:49:16;102474.97;;;23.28;51.09
73864;BME280;62200;52.062;5.292;2022-07-10T16:51:42;102473.19;;;23.27;51.26
73864;BME280;62200;52.062;5.292;2022-07-10T16:54:08;102470.63;;;23.26;51.27
73864;BME280;62200;52.062;5.292;2022-07-10T16:56:34;102475.34;;;23.24;51.17
73864;BME280;62200;52.062;5.292;2022-07-10T16:58:59;102468.22;;;23.23;51.40
73864;BME280;62200;52.062;5.292;2022-07-10T17:01:24;102468.22;;;23.23;51.22
73864;BME280;62200;52.062;5.292;2022-07-10T17:03:50;102469.34;;;23.20;51.24
73864;BME280;62200;52.062;5.292;2022-07-10T17:06:15;102465.78;;;23.20;51.24
73864;BME280;62200;52.062;5.292;2022-07-10T17:08:40;102466.75;;;23.19;51.28
73864;BME280;62200;52.062;5.292;2022-07-10T17:11:06;102468.66;;;23.18;51.22
73864;BME280;62200;52.062;5.292;2022-07-10T17:13:31;102473.22;;;23.18;51.25
73864;BME280;62200;52.062;5.292;2022-07-10T17:15:57;102468.78;;;23.17;51.61
73864;BME280;62200;52.062;5.292;2022-07-10T17:18:22;102449.06;;;23.15;51.35
73864;BME280;62200;52.062;5.292;2022-07-10T17:20:48;102447.34;;;23.13;51.40
73864;BME280;62200;52.062;5.292;2022-07-10T17:23:13;102457.38;;;23.13;51.30
73864;BME280;62200;52.062;5.292;2022-07-10T17:25:39;102446.38;;;23.15;51.17
73864;BME280;62200;52.062;5.292;2022-07-10T17:28:05;102450.06;;;23.13;51.29
73864;BME280;62200;52.062;5.292;2022-07-10T17:30:30;102451.78;;;23.15;50.95
73864;BME280;62200;52.062;5.292;2022-07-10T17:32:55;102444.63;;;23.13;51.09
73864;BME280;62200;52.062;5.292;2022-07-10T17:35:21;102439.19;;;23.13;51.20
73864;BME280;62200;52.062;5.292;2022-07-10T17:37:46;102436.50;;;23.13;50.78
73864;BME280;62200;52.062;5.292;2022-07-10T17:40:12;102441.09;;;23.13;51.04
73864;BME280;62200;52.062;5.292;2022-07-10T17:42:38;102444.91;;;23.10;51.53
73864;BME280;62200;52.062;5.292;2022-07-10T17:45:06;102446.63;;;23.11;51.11
73864;BME280;62200;52.062;5.292;2022-07-10T17:47:32;102441.19;;;23.11;51.49
73864;BME280;62200;52.062;5.292;2022-07-10T17:49:57;102440.38;;;23.11;51.22
73864;BME280;62200;52.062;5.292;2022-07-10T17:52:23;102439.50;;;23.10;51.38
73864;BME280;62200;52.062;5.292;2022-07-10T17:54:48;102443.06;;;23.11;51.38
73864;BME280;62200;52.062;5.292;2022-07-10T17:57:14;102438.78;;;23.08;51.35
73864;BME280;62200;52.062;5.292;2022-07-10T17:59:39;102441.50;;;23.08;51.26
73864;BME280;62200;52.062;5.292;2022-07-10T18:02:04;102437.06;;;23.07;51.25
73864;BME280;62200;52.062;5.292;2022-07-10T18:04:31;102436.22;;;23.07;51.52
73864;BME280;62200;52.062;5.292;2022-07-10T18:06:56;102442.91;;;23.03;51.41
73864;BME280;62200;52.062;5.292;2022-07-10T18:09:23;102430.34;;;23.02;51.48
73864;BME280;62200;52.062;5.292;2022-07-10T18:11:48;102432.34;;;23.00;51.86
73864;BME280;62200;52.062;5.292;2022-07-10T18:14:14;102419.81;;;22.99;51.67
73864;BME280;62200;52.062;5.292;2022-07-10T18:16:40;102429.78;;;22.98;51.98
73864;BME280;62200;52.062;5.292;2022-07-10T18:19:05;102417.22;;;22.97;51.95
73864;BME280;62200;52.062;5.292;2022-07-10T18:21:31;102420.94;;;22.96;51.63
73864;BME280;62200;52.062;5.292;2022-07-10T18:23:57;102420.19;;;22.94;51.89
73864;BME280;62200;52.062;5.292;2022-07-10T18:26:27;102422.22;;;22.92;51.95
73864;BME280;62200;52.062;5.292;2022-07-10T18:28:53;102412.34;;;22.91;52.18
73864;BME280;62200;52.062;5.292;2022-07-10T18:31:18;102411.50;;;22.91;52.07
73864;BME280;62200;52.062;5.292;2022-07-10T18:33:44;102410.66;;;22.90;52.04
73864;BME280;62200;52.062;5.292;2022-07-10T18:36:29;102417.06;;;22.89;52.08
73864;BME280;62200;52.062;5.292;2022-07-10T18:38:54;102418.06;;;22.88;52.39
73864;BME280;62200;52.062;5.292;2022-07-10T18:41:20;102422.78;;;22.86;52.25
73864;BME280;62200;52.062;5.292;2022-07-10T18:43:45;102422.06;;;22.84;52.36
73864;BME280;62200;52.062;5.292;2022-07-10T18:46:10;102424.91;;;22.83;52.54
73864;BME280;62200;52.062;5.292;2022-07-10T18:48:36;102420.50;;;22.82;52.23
73864;BME280;62200;52.062;5.292;2022-07-10T18:51:01;102426.75;;;22.82;52.38
73864;BME280;62200;52.062;5.292;2022-07-10T18:53:26;102426.06;;;22.80;52.63
73864;BME280;62200;52.062;5.292;2022-07-10T18:55:52;102423.47;;;22.79;52.34
73864;BME280;62200;52.062;5.292;2022-07-10T18:58:18;102429.03;;;22.77;52.24
73864;BME280;62200;52.062;5.292;2022-07-10T19:00:44;102437.16;;;22.77;52.52
73864;BME280;62200;52.062;5.292;2022-07-10T19:03:09;102433.63;;;22.77;52.19
73864;BME280;62200;52.062;5.292;2022-07-10T19:05:35;102430.19;;;22.75;52.17
73864;BME280;62200;52.062;5.292;2022-07-10T19:08:01;102441.19;;;22.73;52.60
73864;BME280;62200;52.062;5.292;2022-07-10T19:10:26;102442.16;;;22.72;52.64
73864;BME280;62200;52.062;5.292;2022-07-10T19:12:53;102436.88;;;22.71;52.46
73864;BME280;62200;52.062;5.292;2022-07-10T19:15:19;102444.16;;;22.70;52.37
73864;BME280;62200;52.062;5.292;2022-07-10T19:17:44;102443.31;;;22.70;52.56
73864;BME280;62200;52.062;5.292;2022-07-10T19:20:10;102440.03;;;22.66;52.00
73864;BME280;62200;52.062;5.292;2022-07-10T19:22:38;102443.72;;;22.65;52.40
73864;BME280;62200;52.062;5.292;2022-07-10T19:25:04;102446.56;;;22.64;52.88
73864;BME280;62200;52.062;5.292;2022-07-10T19:27:30;102440.28;;;22.63;52.83
73864;BME280;62200;52.062;5.292;2022-07-10T19:29:55;102441.28;;;22.62;52.14
73864;BME280;62200;52.062;5.292;2022-07-10T19:32:21;102440.56;;;22.60;52.49
73864;BME280;62200;52.062;5.292;2022-07-10T19:34:46;102447.00;;;22.59;52.24
73864;BME280;62200;52.062;5.292;2022-07-10T19:37:11;102454.41;;;22.57;52.56
73864;BME280;62200;52.062;5.292;2022-07-10T19:39:37;102450.97;;;22.55;52.25
73864;BME280;62200;52.062;5.292;2022-07-10T19:42:04;102450.00;;;22.56;52.90
73864;BME280;62200;52.062;5.292;2022-07-10T19:44:30;102451.13;;;22.54;52.61
73864;BME280;62200;52.062;5.292;2022-07-10T19:46:57;102447.50;;;22.53;52.51
73864;BME280;62200;52.062;5.292;2022-07-10T19:49:22;102451.50;;;22.49;53.84
73864;BME280;62200;52.062;5.292;2022-07-10T19:51:50;102448.06;;;22.47;54.17
73864;BME280;62200;52.062;5.292;2022-07-10T19:54:17;102446.34;;;22.46;52.92
73864;BME280;62200;52.062;5.292;2022-07-10T19:56:43;102441.91;;;22.45;53.11
73864;BME280;62200;52.062;5.292;2022-07-10T19:59:08;102449.03;;;22.46;52.92
73864;BME280;62200;52.062;5.292;2022-07-10T20:01:33;102447.47;;;22.44;53.20
73864;BME280;62200;52.062;5.292;2022-07-10T20:03:58;102450.34;;;22.42;53.21
73864;BME280;62200;52.062;5.292;2022-07-10T20:06:24;102459.44;;;22.41;53.32
73864;BME280;62200;52.062;5.292;2022-07-10T20:08:49;102459.44;;;22.41;53.00
73864;BME280;62200;52.062;5.292;2022-07-10T20:11:15;102462.16;;;22.41;53.40
73864;BME280;62200;52.062;5.292;2022-07-10T20:13:40;102457.75;;;22.40;52.85
73864;BME280;62200;52.062;5.292;2022-07-10T20:16:06;102459.59;;;22.40;53.31
73864;BME280;62200;52.062;5.292;2022-07-10T20:18:31;102452.47;;;22.39;53.42
73864;BME280;62200;52.062;5.292;2022-07-10T20:20:57;102454.31;;;22.38;53.34
73864;BME280;62200;52.062;5.292;2022-07-10T20:23:23;102455.31;;;22.37;53.42
73864;BME280;62200;52.062;5.292;2022-07-10T20:25:48;102453.56;;;22.36;53.43
73864;BME280;62200;52.062;5.292;2022-07-10T20:28:14;102451.88;;;22.35;53.33
73864;BME280;62200;52.062;5.292;2022-07-10T20:30:39;102454.72;;;22.34;53.31
73864;BME280;62200;52.062;5.292;2022-07-10T20:33:05;102460.16;;;22.34;53.26
73864;BME280;62200;52.062;5.292;2022-07-10T20:35:30;102454.88;;;22.32;53.27
73864;BME280;62200;52.062;5.292;2022-07-10T20:37:56;102455.44;;;22.36;53.34
73864;BME280;62200;52.062;5.292;2022-07-10T20:40:23;102454.72;;;22.34;53.72
73864;BME280;62200;52.062;5.292;2022-07-10T20:42:49;102454.00;;;22.32;53.25
73864;BME280;62200;52.062;5.292;2022-07-10T20:45:14;102453.13;;;22.31;53.67
73864;BME280;62200;52.062;5.292;2022-07-10T20:47:40;102456.13;;;22.28;53.40
73864;BME280;62200;52.062;5.292;2022-07-10T20:50:06;102456.13;;;22.28;53.68
73864;BME280;62200;52.062;5.292;2022-07-10T20:52:32;102458.09;;;22.26;53.28
73864;BME280;62200;52.062;5.292;2022-07-10T20:54:58;102452.69;;;22.26;53.30
73864;BME280;62200;52.062;5.292;2022-07-10T20:57:23;102456.41;;;22.25;53.36
73864;BME280;62200;52.062;5.292;2022-07-10T20:59:49;102452.97;;;22.23;53.76
73864;BME280;62200;52.062;5.292;2022-07-10T21:02:15;102456.66;;;22.22;53.55
73864;BME280;62200;52.062;5.292;2022-07-10T21:04:45;102463.81;;;22.23;53.02
73864;BME280;62200;52.062;5.292;2022-07-10T21:07:11;102465.78;;;22.21;53.37
73864;BME280;62200;52.062;5.292;2022-07-10T21:09:37;102471.34;;;22.20;53.40
73864;BME280;62200;52.062;5.292;2022-07-10T21:12:03;102466.06;;;22.18;53.38
73864;BME280;62200;52.062;5.292;2022-07-10T21:14:28;102466.22;;;22.17;53.36
73864;BME280;62200;52.062;5.292;2022-07-10T21:16:54;102462.63;;;22.16;53.35
73864;BME280;62200;52.062;5.292;2022-07-10T21:19:19;102475.31;;;22.16;53.21
73864;BME280;62200;52.062;5.292;2022-07-10T21:21:44;102467.47;;;22.13;53.56
73864;BME280;62200;52.062;5.292;2022-07-10T21:24:10;102469.44;;;22.11;53.55
73864;BME280;62200;52.062;5.292;2022-07-10T21:26:35;102468.56;;;22.10;53.44
73864;BME280;62200;52.062;5.292;2022-07-10T21:29:00;102470.59;;;22.08;53.77
73864;BME280;62200;52.062;5.292;2022-07-10T21:31:27;102476.84;;;22.09;53.63
73864;BME280;62200;52.062;5.292;2022-07-10T21:33:52;102473.41;;;22.07;53.73
73864;BME280;62200;52.062;5.292;2022-07-10T21:36:17;102473.69;;;22.04;53.71
73864;BME280;62200;52.062;5.292;2022-07-10T21:38:43;102471.09;;;22.02;53.78
73864;BME280;62200;52.062;5.292;2022-07-10T21:41:08;102472.94;;;22.02;53.76
73864;BME280;62200;52.062;5.292;2022-07-10T21:43:34;102475.78;;;22.00;53.82
73864;BME280;62200;52.062;5.292;2022-07-10T21:46:00;102476.81;;;21.99;53.60
73864;BME280;62200;52.062;5.292;2022-07-10T21:48:25;102476.06;;;21.97;53.66
73864;BME280;62200;52.062;5.292;2022-07-10T21:50:51;102467.94;;;21.97;54.04
73864;BME280;62200;52.062;5.292;2022-07-10T21:53:17;102482.50;;;21.96;53.62
73864;BME280;62200;52.062;5.292;2022-07-10T21:55:42;102485.31;;;21.94;53.73
73864;BME280;62200;52.062;5.292;2022-07-10T21:58:08;102482.75;;;21.93;53.67
73864;BME280;62200;52.062;5.292;2022-07-10T22:00:33;102485.59;;;21.91;53.82
73864;BME280;62200;52.062;5.292;2022-07-10T22:02:59;102483.00;;;21.90;53.45
73864;BME280;62200;52.062;5.292;2022-07-10T22:05:24;102478.59;;;21.89;53.75
73864;BME280;62200;52.062;5.292;2022-07-10T22:07:49;102477.72;;;21.88;53.81
73864;BME280;62200;52.062;5.292;2022-07-10T22:10:15;102482.41;;;21.86;53.49
73864;BME280;62200;52.062;5.292;2022-07-10T22:12:40;102487.84;;;21.86;53.40
73864;BME280;62200;52.062;5.292;2022-07-10T22:15:07;102479.84;;;21.85;53.40
73864;BME280;62200;52.062;5.292;2022-07-10T22:17:32;102486.28;;;21.84;53.98
73864;BME280;62200;52.062;5.292;2022-07-10T22:20:05;102482.84;;;21.82;53.41
73864;BME280;62200;52.062;5.292;2022-07-10T22:22:30;102477.56;;;21.80;53.77
73864;BME280;62200;52.062;5.292;2022-07-10T22:24:56;102469.56;;;21.79;53.82
73864;BME280;62200;52.062;5.292;2022-07-10T22:27:21;102467.84;;;21.78;53.65
73864;BME280;62200;52.062;5.292;2022-07-10T22:29:46;102469.56;;;21.79;53.71
73864;BME280;62200;52.062;5.292;2022-07-10T22:32:12;102473.25;;;21.78;53.65
73864;BME280;62200;52.062;5.292;2022-07-10T22:34:37;102464.25;;;21.77;53.58
73864;BME280;62200;52.062;5.292;2022-07-10T22:37:03;102476.06;;;21.76;53.35
73864;BME280;62200;52.062;5.292;2022-07-10T22:39:28;102467.22;;;21.74;53.42
73864;BME280;62200;52.062;5.292;2022-07-10T22:41:53;102464.63;;;21.73;53.41
73864;BME280;62200;52.062;5.292;2022-07-10T22:44:18;102452.09;;;21.72;53.46
73864;BME280;62200;52.062;5.292;2022-07-10T22:46:44;102468.34;;;21.72;53.54
73864;BME280;62200;52.062;5.292;2022-07-10T22:49:09;102459.50;;;21.70;53.65
73864;BME280;62200;52.062;5.292;2022-07-10T22:51:35;102461.19;;;21.71;53.51
73864;BME280;62200;52.062;5.292;2022-07-10T22:54:00;102459.50;;;21.70;53.70
73864;BME280;62200;52.062;5.292;2022-07-10T22:56:25;102458.75;;;21.68;53.58
73864;BME280;62200;52.062;5.292;2022-07-10T22:58:51;102468.59;;;21.69;53.44
73864;BME280;62200;52.062;5.292;2022-07-10T23:01:19;102461.47;;;21.68;53.33
73864;BME280;62200;52.062;5.292;2022-07-10T23:03:44;102457.06;;;21.67;53.73
73864;BME280;62200;52.062;5.292;2022-07-10T23:06:10;102456.31;;;21.65;53.95
73864;BME280;62200;52.062;5.292;2022-07-10T23:08:35;102452.63;;;21.66;53.67
73864;BME280;62200;52.062;5.292;2022-07-10T23:11:02;102455.31;;;21.66;53.67
73864;BME280;62200;52.062;5.292;2022-07-10T23:13:27;102450.91;;;21.65;53.58
73864;BME280;62200;52.062;5.292;2022-07-10T23:15:52;102451.88;;;21.64;53.26
73864;BME280;62200;52.062;5.292;2022-07-10T23:18:18;102448.34;;;21.63;53.54
73864;BME280;62200;52.062;5.292;2022-07-10T23:20:43;102453.84;;;21.62;53.55
73864;BME280;62200;52.062;5.292;2022-07-10T23:23:08;102449.44;;;21.61;53.45
73864;BME280;62200;52.062;5.292;2022-07-10T23:25:34;102446.75;;;21.61;53.70
73864;BME280;62200;52.062;5.292;2022-07-10T23:27:59;102445.03;;;21.60;53.75
73864;BME280;62200;52.062;5.292;2022-07-10T23:30:24;102433.34;;;21.59;53.70
73864;BME280;62200;52.062;5.292;2022-07-10T23:32:50;102426.22;;;21.58;53.44
73864;BME280;62200;52.062;5.292;2022-07-10T23:35:15;102425.38;;;21.58;53.42
73864;BME280;62200;52.062;5.292;2022-07-10T23:37:40;102421.78;;;21.57;53.66
73864;BME280;62200;52.062;5.292;2022-07-10T23:40:07;102422.78;;;21.56;53.47
73864;BME280;62200;52.062;5.292;2022-07-10T23:42:32;102423.75;;;21.55;53.80
73864;BME280;62200;52.062;5.292;2022-07-10T23:45:01;102430.91;;;21.56;53.52
73864;BME280;62200;52.062;5.292;2022-07-10T23:47:26;102428.34;;;21.55;53.60
73864;BME280;62200;52.062;5.292;2022-07-10T23:49:52;102432.03;;;21.54;53.75
73864;BME280;62200;52.062;5.292;2022-07-10T23:52:36;102425.63;;;21.55;53.75
73864;BME280;62200;52.062;5.292;2022-07-10T23:55:02;102423.91;;;21.54;53.91
73864;BME280;62200;52.062;5.292;2022-07-10T23:57:27;102421.19;;;21.54;53.75
73864;BME280;62200;52.062;5.292;2022-07-10T23:59:52;102424.91;;;21.53;53.82
